Flugplatz Offenburg (EDTO)

Hier findest Du alle Informationen zum Flugplatz Offenburg (EDTO).

Informationen für Piloten zum Flugplatz Offenburg

Hier findest Du alle relevanten Informationen, die Du als Pilot benötigst, um Offenburg anzufliegen.

Flugplatz: Offenburg ICAO-Code: EDTO
Frequenz Turm: 119,750 Mhz GAFOR Gebiet: 61
Frequenz Ground: 119,750 Mhz Mogas: nein
Platzrunde: NO 1200 ft Landegebühr: -
Platzhöhe: 509 ft Sunrise: 03:45 Uhr UTC
Pisten: 02/20 - 910 m x 20 m, ASPH Sunset: 19:23 Uhr UTC

Flugwetter am Flugplatz Offenburg

Die METAR Information stammen aus EDTL (11.46 km entfernt).

METAR Code:
2024/07/13 04:20
EDTL 130420Z AUTO VRB03KT 9999 // BKN083/// 15/14 Q1014

Flugschulen am Flugplatz Offenburg

Am Flugplatz Offenburg gibt es eine Flugschule.

Benachbarte Flugplätze und Flugschulen

Es gibt 8 weitere Flugplätze in einem Umkreis von 50 km um den Flugplatz Offenburg.

Jetzt anmelden

Passwort vergessen

Umfrage Archiv

Wie häufig haltet Ihr die Halbkreisflugregel ein?

Eher häufig!
36.4 %
Immer!
30.2 %
Hin und wieder!
17.1 %
Nie!
9.5 %
Eher selten!
6.9 %
Stimmen: 275 | Diskussion
Anzeige: Roland Aircraft
Statistik Alle Mitglieder

Aktuell sind 12 Besucher online.

Anzeige: EasyVFR